Costa Fascinosa — ICPO — position and weather

sailwx.info

Track history (hours):
 
Tides and Currents Weather Stations Pressure Air Temp Water Temp Dewpoint Dewpoint Depression Visibility Wind Speed Wind Dir Waves Ship Positions

Costa Fascinosa

Last reported at 2019-Jan-18 02:16 UTC. Time now 2019-Jan-23 21:49 UTC.
Position S 23°26' W 043°40'.

Length 291 m; draft 8.3 m.

Type: Passenger vessel. MMSI: 247313500.

Date/timePositionNaut miles runAvg speedWind from/ knotsBaromVisibWave heightAir tempDewpointWater temp
2019-Jan-18 02:16S 23°26' W 043°40'712.5
2019-Jan-18 01:41S 23°22' W 043°33'712.4
2019-Jan-18 01:06S 23°17' W 043°28'212.4
2019-Jan-18 00:59S 23°16' W 043°27'812.4
2019-Jan-18 00:19S 23°10' W 043°20'811.8
2019-Jan-17 23:39S 23°05' W 043°14'311.5
2019-Jan-17 23:24S 23°03' W 043°11'511.1
2019-Jan-17 22:59S 22°59' W 043°08'510.2
2019-Jan-17 22:30S 22°54' W 043°09'2 3.6
2019-Jan-17 21:58S 22°54' W 043°11'0 0.0
2019-Jan-17 21:28S 22°54' W 043°11'0 0.0
2019-Jan-17 20:58S 22°54' W 043°11'0 0.0
2019-Jan-17 20:28S 22°54' W 043°11'0 0.0
2019-Jan-17 20:00S 22°54' W 043°11'0 0.0
2019-Jan-17 19:30S 22°54' W 043°11'0 0.0
2019-Jan-17 19:00S 22°54' W 043°11'0 0.0
2019-Jan-17 18:30S 22°54' W 043°11'0 0.0
2019-Jan-17 18:00S 22°54' W 043°11'0 0.0
2019-Jan-17 17:28S 22°54' W 043°11'0 0.0
2019-Jan-17 17:00S 22°54' W 043°11'0 0.0
2019-Jan-17 16:30S 22°54' W 043°11'0 0.0
2019-Jan-17 16:00S 22°54' W 043°11'0 0.0
2019-Jan-17 15:30S 22°54' W 043°11'0 0.0
2019-Jan-17 15:00S 22°54' W 043°11'0 0.0
2019-Jan-17 14:30S 22°54' W 043°11'0 0.0
2019-Jan-17 14:00S 22°54' W 043°11'0 0.0
2019-Jan-17 13:30S 22°54' W 043°11'0 0.0
2019-Jan-17 13:00S 22°54' W 043°11'0 0.0
2019-Jan-17 12:30S 22°54' W 043°11'0 0.0
2019-Jan-17 12:00S 22°54' W 043°11'0 0.0
2019-Jan-17 11:30S 22°54' W 043°11'0 0.1
2019-Jan-17 11:02S 22°54' W 043°11'0 3.2
2019-Jan-17 11:00S 22°54' W 043°11'016.1
2019-Jan-17 11:00S 22°54' W 043°11'0 0.0
2019-Jan-17 10:30S 22°54' W 043°11'207 6.4
2019-Jan-16 02:22S 25°30' W 045°39'817.9
2019-Jan-16 01:55S 25°36' W 045°44'1017.7
2019-Jan-16 01:22S 25°45' W 045°50'2518.0
2019-Jan-16 00:01S 26°05' W 046°05'018.9
2019-Jan-16 00:00S 26°05' W 046°05'  
2019-Jan-10 22:59S 25°32' W 046°41'1521.0
2019-Jan-10 22:17S 25°18' W 046°33'721.2
2019-Jan-10 21:56S 25°12' W 046°30'921.1
2019-Jan-10 21:30S 25°04' W 046°26'1121.0
2019-Jan-10 20:59S 24°54' W 046°20'1021.0
2019-Jan-10 20:30S 24°45' W 046°14'1021.0
2019-Jan-10 20:00S 24°36' W 046°09'1420.8
2019-Jan-10 19:20S 24°24' W 046°02'720.6
2019-Jan-10 19:00S 24°17' W 045°59'1020.3
2019-Jan-10 18:30S 24°09' W 045°54'1019.9
2019-Jan-10 17:59S 24°01' W 045°46'  
2019-Jan-08 07:16S 24°42' W 045°04'919.0
2019-Jan-08 06:48S 24°49' W 045°10'619.3
2019-Jan-08 06:30S 24°54' W 045°13'1019.2
2019-Jan-08 06:00S 25°02' W 045°19'919.1
2019-Jan-08 05:30S 25°10' W 045°25'1019.5
2019-Jan-08 05:00S 25°18' W 045°31'1019.7
2019-Jan-08 04:30S 25°26' W 045°37'1020.0
2019-Jan-08 04:00S 25°35' W 045°43'1020.3
2019-Jan-08 03:30S 25°43' W 045°49'1020.6
2019-Jan-08 03:00S 25°52' W 045°55'1020.5
2019-Jan-08 02:30S 26°00' W 046°02'  
Track history (hours):
 
Tides and Currents Weather Stations Pressure Air Temp Water Temp Dewpoint Dewpoint Depression Visibility Wind Speed Wind Dir Waves Ship Positions

Costa Fascinosa

Last reported at 2019-Jan-18 02:16 UTC. Time now 2019-Jan-23 21:49 UTC.
Position S 23°26' W 043°40'.

Length 291 m; draft 8.3 m.

Type: Passenger vessel. MMSI: 247313500.

Date/timePositionNaut miles runAvg speedWind from/ knotsBaromVisibWave heightAir tempDewpointWater temp
2019-Jan-18 02:16S 23°26' W 043°40'712.5
2019-Jan-18 01:41S 23°22' W 043°33'712.4
2019-Jan-18 01:06S 23°17' W 043°28'212.4
2019-Jan-18 00:59S 23°16' W 043°27'812.4
2019-Jan-18 00:19S 23°10' W 043°20'811.8
2019-Jan-17 23:39S 23°05' W 043°14'311.5
2019-Jan-17 23:24S 23°03' W 043°11'511.1
2019-Jan-17 22:59S 22°59' W 043°08'510.2
2019-Jan-17 22:30S 22°54' W 043°09'2 3.6
2019-Jan-17 21:58S 22°54' W 043°11'0 0.0
2019-Jan-17 21:28S 22°54' W 043°11'0 0.0
2019-Jan-17 20:58S 22°54' W 043°11'0 0.0
2019-Jan-17 20:28S 22°54' W 043°11'0 0.0
2019-Jan-17 20:00S 22°54' W 043°11'0 0.0
2019-Jan-17 19:30S 22°54' W 043°11'0 0.0
2019-Jan-17 19:00S 22°54' W 043°11'0 0.0
2019-Jan-17 18:30S 22°54' W 043°11'0 0.0
2019-Jan-17 18:00S 22°54' W 043°11'0 0.0
2019-Jan-17 17:28S 22°54' W 043°11'0 0.0
2019-Jan-17 17:00S 22°54' W 043°11'0 0.0
2019-Jan-17 16:30S 22°54' W 043°11'0 0.0
2019-Jan-17 16:00S 22°54' W 043°11'0 0.0
2019-Jan-17 15:30S 22°54' W 043°11'0 0.0
2019-Jan-17 15:00S 22°54' W 043°11'0 0.0
2019-Jan-17 14:30S 22°54' W 043°11'0 0.0
2019-Jan-17 14:00S 22°54' W 043°11'0 0.0
2019-Jan-17 13:30S 22°54' W 043°11'0 0.0
2019-Jan-17 13:00S 22°54' W 043°11'0 0.0
2019-Jan-17 12:30S 22°54' W 043°11'0 0.0
2019-Jan-17 12:00S 22°54' W 043°11'0 0.0
2019-Jan-17 11:30S 22°54' W 043°11'0 0.1
2019-Jan-17 11:02S 22°54' W 043°11'0 3.2
2019-Jan-17 11:00S 22°54' W 043°11'016.1
2019-Jan-17 11:00S 22°54' W 043°11'0 0.0
2019-Jan-17 10:30S 22°54' W 043°11'207 6.4
2019-Jan-16 02:22S 25°30' W 045°39'817.9
2019-Jan-16 01:55S 25°36' W 045°44'1017.7
2019-Jan-16 01:22S 25°45' W 045°50'2518.0
2019-Jan-16 00:01S 26°05' W 046°05'018.9
2019-Jan-16 00:00S 26°05' W 046°05'  
2019-Jan-10 22:59S 25°32' W 046°41'1521.0
2019-Jan-10 22:17S 25°18' W 046°33'721.2
2019-Jan-10 21:56S 25°12' W 046°30'921.1
2019-Jan-10 21:30S 25°04' W 046°26'1121.0
2019-Jan-10 20:59S 24°54' W 046°20'1021.0
2019-Jan-10 20:30S 24°45' W 046°14'1021.0
2019-Jan-10 20:00S 24°36' W 046°09'1420.8
2019-Jan-10 19:20S 24°24' W 046°02'720.6
2019-Jan-10 19:00S 24°17' W 045°59'1020.3
2019-Jan-10 18:30S 24°09' W 045°54'1019.9
2019-Jan-10 17:59S 24°01' W 045°46'  
2019-Jan-08 07:16S 24°42' W 045°04'919.0
2019-Jan-08 06:48S 24°49' W 045°10'619.3
2019-Jan-08 06:30S 24°54' W 045°13'1019.2
2019-Jan-08 06:00S 25°02' W 045°19'919.1
2019-Jan-08 05:30S 25°10' W 045°25'1019.5
2019-Jan-08 05:00S 25°18' W 045°31'1019.7
2019-Jan-08 04:30S 25°26' W 045°37'1020.0
2019-Jan-08 04:00S 25°35' W 045°43'1020.3
2019-Jan-08 03:30S 25°43' W 045°49'1020.6
2019-Jan-08 03:00S 25°52' W 045°55'1020.5
2019-Jan-08 02:30S 26°00' W 046°02'  

Dump ship's entire track history